Terminal Aerodrome Forecast
Issued by NWS

Home | Current Version | Previous Version | Text Only | Print | Product List | Glossary On
Versions: 1 2 3 4 5 6 7 8 9 10 11 12 13 14 15 16 17 18 19 20 21 22 23 24 25
000
FTUS46 KOTX 152358 CCB
TAFSFF
TAF COR
KSFF 152358Z 1600/1624 22004KT 4SM -SHSN BR BKN015 BKN022 OVC035
     FM160400 25003KT 3SM BR BKN009
     FM160700 26004KT 1SM BR OVC004
     FM161300 25002KT 1/2SM FZFG OVC001
     FM161800 24003KT 2SM BR OVC005=

USA.gov is the U.S. government's official web portal to all federal, state and local government web resources and services.